Weedsport, New York
Current Conditions -  °F | °C
As of 1:54 PM on Thursday 23 Oct 2014 (Local Time) from KFZY Reporting Station
Overcast Overcast  
Wind Chill: 53°   Ceiling: 3000
Heat Index: 53°   Visibility: 10mi
Dew Point: 40°   Wind: 18mph
Humidity: 61%   Direction: 350°N
Pressure: 29.97"   Gusts: 24mph
Location:  43.05°N, 76.56°W
Report Text: KFZY 231754Z AUTO 35016G21KT 10SM OVC030 12/04 A2997 RMK AO2 SLP148 T01170044 10128 20072 58012
Loading
Personal Weather Stations






























Interactive Weather Map
Tropical Storm Tracking
New forecast layout! Learn more

10-Day Weather Forecast

Advertisements
Track Severe Weather on mobile